Hovedside
METAR-TAF:

METAR-TAF

Lufthavner :

Kuching, Malaysia

breddegrad: 01-29N, lengdegrad: 110-20E, høyde over havet: 27 m

Gjeldene værobservasjon

Denne rapporten ble laget for 54 minutter siden, klokken 20:00 UTC
Flau vind
Temperatur 25°C
Luftfuktighet 94%
Trykk 1008 hPa
Sikt 10 km eller mer
Spredte skyer i en høyde av 1800 ft

METAR: WBGG 242000Z 00000KT 9999 SCT018 25/24 Q1008 NOSIG

Tid: 04:54 (20:54 UTC)

Varsel

Denne rapporten ble laget for 3 timer og 54 minutter siden, klokken 17:00 UTC
Varsel gyldig fra 24. klokken 18 UTC til 25. klokken 18 UTC
Vind 3 kt fra skiftende retning
Sikt 10 km eller mer
Spredte skyer i en høyde av 1600 ft

TAF: WBGG 241700Z 2418/2518 VRB03KT 9999 SCT016

Værobservasjoner og værvarsel for over 4000 flyplasser (METAR- og TAF-rapporter).

Tilgjengelige stasjoner er representert av de røde og gule prikkene på kartet.

Hold musepekeren over prikken for å se navnet på stasjonen.

Klikk så for å se værobservasjoner og -varsler.

For å forandre kartet kan du klikke på den grønne knappen med svart kryss for å zoome inn, på den grønne knappen med strek for å zoome ut, eller på de grønne pilene for å se tilstøtende kart.


METAR-TAF: